PDT,Max TemperatureF,Mean TemperatureF,Min TemperatureF,Max Dew PointF,MeanDew PointF,Min DewpointF,Max Humidity, Mean Humidity, Min Humidity, Max Sea Level PressureIn, Mean Sea Level PressureIn, Min Sea Level PressureIn, Max VisibilityMiles, Mean VisibilityMiles, Min VisibilityMiles, Max Wind SpeedMPH, Mean Wind SpeedMPH, Max Gust SpeedMPH,PrecipitationIn, CloudCover, Events, WindDirDegrees
2013-10-1,76,65,53,59,55,49,89,72,54,29.96,29.92,29.88,10,10,8,13,4,16,0.00,0,,258
2013-10-2,74,65,56,58,56,52,93,75,57,29.99,29.95,29.91,10,9,7,15,5,18,0.00,3,,298
2013-10-3,71,64,56,58,56,53,93,77,61,29.95,29.91,29.85,10,9,7,13,4,18,0.00,4,,231
2013-10-4,88,70,51,52,25,10,89,48,6,30.06,29.97,29.91,10,9,5,40,18,51,0.00,0,,58
2013-10-5,91,77,63,39,18,12,33,19,5,30.15,30.09,30.05,10,10,9,40,19,55,0.00,0,,57
2013-10-6,92,75,58,50,27,15,55,31,6,30.10,30.05,29.99,10,10,10,21,9,24,0.00,0,,98
2013-10-7,76,64,51,57,47,32,86,61,35,30.01,29.96,29.94,10,10,9,13,4,16,0.00,0,,264
2013-10-8,70,60,50,55,52,44,96,79,61,29.95,29.89,29.83,10,7,1,15,6,21,0.00,2,,286
2013-10-9,65,57,49,54,50,44,80,68,56,29.83,29.77,29.73,10,10,8,26,9,32,T,5,,258
2013-10-10,68,57,46,51,47,43,86,69,52,30.04,29.97,29.83,10,10,10,15,5,22,0.00,1,,115
2013-10-11,70,59,47,54,50,44,89,72,55,30.07,30.02,29.98,10,10,8,13,4,18,0.00,0,,258
2013-10-12,72,60,47,55,51,44,89,71,53,30.00,29.96,29.92,10,9,8,13,4,,0.00,1,,272
2013-10-13,69,60,50,55,51,47,89,71,53,30.04,29.99,29.94,10,9,6,14,4,18,0.00,4,,14
2013-10-14,84,66,48,56,50,45,93,64,35,30.05,30.00,29.95,10,9,8,14,4,20,0.00,0,,266
2013-10-15,88,73,57,54,36,25,63,37,10,29.98,29.94,29.91,10,10,10,22,8,28,0.00,0,,58
2013-10-16,88,70,51,42,29,18,55,32,8,30.09,30.04,29.99,10,10,10,24,10,29,0.00,0,,91
2013-10-17,78,63,48,55,42,33,80,50,20,30.06,30.00,29.96,10,10,10,12,3,15,0.00,0,,236
2013-10-18,75,62,48,58,48,38,83,60,36,30.03,29.99,29.96,10,10,10,12,4,23,0.00,0,,220
2013-10-19,77,63,48,58,48,35,93,66,38,30.05,30.01,29.99,10,10,6,12,3,18,0.00,0,,256
2013-10-20,70,59,48,58,51,42,89,76,63,30.01,29.97,29.93,10,8,5,14,4,16,0.00,3,,280
2013-10-21,69,61,53,56,54,50,93,78,63,30.02,29.98,29.94,9,5,1,10,3,14,0.00,4,,300
2013-10-22,68,60,51,56,53,47,93,78,63,30.04,29.98,29.93,10,6,2,10,2,13,0.00,6,,319
2013-10-23,67,62,57,55,54,53,86,75,63,30.01,29.96,29.92,10,7,3,12,4,15,0.00,7,,311
2013-10-24,69,64,59,55,53,52,84,70,55,30.07,30.02,29.97,10,8,6,14,3,17,0.00,6,,310
2013-10-25,69,62,54,56,54,52,93,78,63,30.16,30.09,30.04,9,6,3,12,4,21,0.00,4,,310
2013-10-26,71,59,47,57,53,46,100,79,57,30.12,30.05,29.97,10,5,0,10,3,14,0.00,3,Fog,351
2013-10-27,69,58,46,56,51,43,100,82,63,30.00,29.92,29.81,10,8,0,17,7,21,0.00,4,Fog,248
2013-10-28,67,62,57,52,48,43,80,61,42,29.95,29.87,29.80,10,10,10,22,11,26,0.00,4,,257
2013-10-29,65,57,48,51,48,45,83,68,52,30.02,29.99,29.95,10,10,10,15,6,20,0.00,3,,79
2013-10-30,70,58,46,54,47,42,89,63,37,30.09,30.05,30.02,10,10,10,13,5,17,0.00,0,,12
2013-10-31,73,59,44,49,43,39,86,60,33,30.11,30.07,30.03,10,10,10,10,4,14,0.00,0,,297